sensor_id;sensor_type;location;lat;lon;timestamp;pressure;altitude;pressure_sealevel;temperature;humidity
70521;BME280;58442;52.716;23.560;2023-02-03T00:01:52;101378.55;;;1.11;77.82
70521;BME280;58442;52.716;23.560;2023-02-03T00:03:53;101386.02;;;1.08;77.91
70521;BME280;58442;52.716;23.560;2023-02-03T00:05:55;101392.45;;;1.07;77.88
70521;BME280;58442;52.716;23.560;2023-02-03T00:07:57;101397.80;;;1.07;77.80
70521;BME280;58442;52.716;23.560;2023-02-03T00:10:07;101404.23;;;1.06;77.78
70521;BME280;58442;52.716;23.560;2023-02-03T00:12:09;101408.79;;;1.06;77.68
70521;BME280;58442;52.716;23.560;2023-02-03T00:14:10;101409.30;;;1.03;77.75
70521;BME280;58442;52.716;23.560;2023-02-03T00:16:12;101418.41;;;1.02;77.82
70521;BME280;58442;52.716;23.560;2023-02-03T00:18:22;101424.83;;;1.01;77.71
70521;BME280;58442;52.716;23.560;2023-02-03T00:20:23;101427.78;;;0.99;77.73
70521;BME280;58442;52.716;23.560;2023-02-03T00:22:25;101427.26;;;0.97;77.68
70521;BME280;58442;52.716;23.560;2023-02-03T00:24:27;101434.73;;;0.95;77.70
70521;BME280;58442;52.716;23.560;2023-02-03T00:26:41;101436.34;;;0.91;77.70
70521;BME280;58442;52.716;23.560;2023-02-03T00:28:43;101432.58;;;0.87;77.58
70521;BME280;58442;52.716;23.560;2023-02-03T00:30:44;101435.79;;;0.84;77.64
70521;BME280;58442;52.716;23.560;2023-02-03T00:32:46;101437.10;;;0.81;77.62
70521;BME280;58442;52.716;23.560;2023-02-03T00:34:52;101439.52;;;0.78;77.61
70521;BME280;58442;52.716;23.560;2023-02-03T00:36:53;101447.01;;;0.76;77.49
70521;BME280;58442;52.716;23.560;2023-02-03T00:38:55;101444.85;;;0.73;77.43
70521;BME280;58442;52.716;23.560;2023-02-03T00:40:56;101438.68;;;0.67;77.45
70521;BME280;58442;52.716;23.560;2023-02-03T00:43:10;101459.02;;;0.63;77.46
70521;BME280;58442;52.716;23.560;2023-02-03T00:45:11;101444.27;;;0.61;77.46
70521;BME280;58442;52.716;23.560;2023-02-03T00:47:12;101451.49;;;0.60;77.38
70521;BME280;58442;52.716;23.560;2023-02-03T00:49:14;101452.30;;;0.56;77.34
70521;BME280;58442;52.716;23.560;2023-02-03T00:51:22;101445.86;;;0.51;77.35
70521;BME280;58442;52.716;23.560;2023-02-03T00:53:26;101451.74;;;0.48;77.31
70521;BME280;58442;52.716;23.560;2023-02-03T00:55:28;101453.32;;;0.44;77.33
70521;BME280;58442;52.716;23.560;2023-02-03T00:57:32;101452.79;;;0.42;77.38
70521;BME280;58442;52.716;23.560;2023-02-03T00:59:37;101446.88;;;0.40;77.33
70521;BME280;58442;52.716;23.560;2023-02-03T01:01:41;101458.11;;;0.37;77.37
70521;BME280;58442;52.716;23.560;2023-02-03T01:03:43;101450.09;;;0.37;77.33
70521;BME280;58442;52.716;23.560;2023-02-03T01:05:44;101444.44;;;0.34;77.29
70521;BME280;58442;52.716;23.560;2023-02-03T01:07:52;101446.58;;;0.32;77.32
70521;BME280;58442;52.716;23.560;2023-02-03T01:09:54;101450.59;;;0.29;77.30
70521;BME280;58442;52.716;23.560;2023-02-03T01:11:55;101454.87;;;0.30;77.24
70521;BME280;58442;52.716;23.560;2023-02-03T01:14:02;101456.21;;;0.28;77.18
70521;BME280;58442;52.716;23.560;2023-02-03T01:16:13;101460.18;;;0.25;77.13
70521;BME280;58442;52.716;23.560;2023-02-03T01:18:15;101460.71;;;0.22;77.08
70521;BME280;58442;52.716;23.560;2023-02-03T01:20:22;101464.95;;;0.18;77.14
70521;BME280;58442;52.716;23.560;2023-02-03T01:22:24;101469.77;;;0.16;77.16
70521;BME280;58442;52.716;23.560;2023-02-03T01:24:25;101468.40;;;0.13;77.20
70521;BME280;58442;52.716;23.560;2023-02-03T01:26:27;101472.41;;;0.11;77.13
70521;BME280;58442;52.716;23.560;2023-02-03T01:28:32;101478.28;;;0.08;77.10
70521;BME280;58442;52.716;23.560;2023-02-03T01:30:33;101479.05;;;0.03;77.16
70521;BME280;58442;52.716;23.560;2023-02-03T01:32:38;101473.98;;;0.02;77.20
70521;BME280;58442;52.716;23.560;2023-02-03T01:34:39;101480.38;;;0.01;77.18
70521;BME280;58442;52.716;23.560;2023-02-03T01:36:41;101481.67;;;-0.02;77.26
70521;BME280;58442;52.716;23.560;2023-02-03T01:38:43;101480.12;;;0.02;77.25
70521;BME280;58442;52.716;23.560;2023-02-03T01:40:52;101480.91;;;0.03;77.07
70521;BME280;58442;52.716;23.560;2023-02-03T01:42:54;101487.33;;;0.02;77.05
70521;BME280;58442;52.716;23.560;2023-02-03T01:44:55;101476.64;;;0.02;77.01
70521;BME280;58442;52.716;23.560;2023-02-03T01:46:58;101477.95;;;-0.01;77.05
70521;BME280;58442;52.716;23.560;2023-02-03T01:49:17;101476.34;;;-0.02;77.03
70521;BME280;58442;52.716;23.560;2023-02-03T01:51:29;101477.41;;;-0.03;77.07
70521;BME280;58442;52.716;23.560;2023-02-03T01:53:32;101480.08;;;-0.03;77.03
70521;BME280;58442;52.716;23.560;2023-02-03T01:55:39;101480.61;;;-0.06;76.97
70521;BME280;58442;52.716;23.560;2023-02-03T01:57:47;101484.30;;;-0.07;77.05
70521;BME280;58442;52.716;23.560;2023-02-03T01:59:53;101476.30;;;-0.07;77.06
70521;BME280;58442;52.716;23.560;2023-02-03T02:02:06;101477.13;;;-0.07;77.13
70521;BME280;58442;52.716;23.560;2023-02-03T02:04:10;101478.73;;;-0.06;77.10
70521;BME280;58442;52.716;23.560;2023-02-03T02:06:13;101479.54;;;-0.05;77.14
70521;BME280;58442;52.716;23.560;2023-02-03T02:08:18;101477.41;;;-0.03;77.12
70521;BME280;58442;52.716;23.560;2023-02-03T02:10:26;101479.00;;;-0.02;77.11
70521;BME280;58442;52.716;23.560;2023-02-03T02:12:28;101476.34;;;-0.02;77.07
70521;BME280;58442;52.716;23.560;2023-02-03T02:14:29;101480.88;;;-0.03;77.08
70521;BME280;58442;52.716;23.560;2023-02-03T02:37:37;101488.44;;;0.11;77.29
70521;BME280;58442;52.716;23.560;2023-02-03T02:40:00;101488.18;;;0.12;77.33
70521;BME280;58442;52.716;23.560;2023-02-03T02:44:42;101487.41;;;0.17;77.33
70521;BME280;58442;52.716;23.560;2023-02-03T02:46:56;101484.47;;;0.18;77.28
70521;BME280;58442;52.716;23.560;2023-02-03T02:51:14;101482.33;;;0.20;77.36
70521;BME280;58442;52.716;23.560;2023-02-03T02:53:20;101478.63;;;0.21;77.39
70521;BME280;58442;52.716;23.560;2023-02-03T02:55:31;101481.83;;;0.23;77.39
70521;BME280;58442;52.716;23.560;2023-02-03T02:57:38;101472.48;;;0.26;77.38
70521;BME280;58442;52.716;23.560;2023-02-03T02:59:40;101467.13;;;0.26;77.38
70521;BME280;58442;52.716;23.560;2023-02-03T03:01:41;101471.18;;;0.29;77.41
70521;BME280;58442;52.716;23.560;2023-02-03T03:03:43;101481.34;;;0.32;77.42
70521;BME280;58442;52.716;23.560;2023-02-03T03:06:01;101482.67;;;0.34;77.43
70521;BME280;58442;52.716;23.560;2023-02-03T03:08:15;101479.76;;;0.36;77.40
70521;BME280;58442;52.716;23.560;2023-02-03T03:10:21;101479.50;;;0.37;77.40
70521;BME280;58442;52.716;23.560;2023-02-03T03:12:29;101484.59;;;0.39;77.39
70521;BME280;58442;52.716;23.560;2023-02-03T03:14:39;101475.25;;;0.41;77.38
70521;BME280;58442;52.716;23.560;2023-02-03T03:16:51;101465.08;;;0.43;77.34
70521;BME280;58442;52.716;23.560;2023-02-03T03:21:18;101480.59;;;0.46;77.32
70521;BME280;58442;52.716;23.560;2023-02-03T03:23:28;101478.73;;;0.47;77.32
70521;BME280;58442;52.716;23.560;2023-02-03T03:27:48;101478.48;;;0.48;77.22
70521;BME280;58442;52.716;23.560;2023-02-03T03:30:00;101478.48;;;0.48;77.21
70521;BME280;58442;52.716;23.560;2023-02-03T03:32:03;101480.09;;;0.49;77.24
70521;BME280;58442;52.716;23.560;2023-02-03T03:34:04;101480.63;;;0.51;77.21
70521;BME280;58442;52.716;23.560;2023-02-03T03:36:22;101474.21;;;0.52;77.17
70521;BME280;58442;52.716;23.560;2023-02-03T03:38:29;101475.82;;;0.53;77.20
70521;BME280;58442;52.716;23.560;2023-02-03T03:40:43;101465.67;;;0.56;77.14
70521;BME280;58442;52.716;23.560;2023-02-03T03:42:53;101467.55;;;0.55;77.08
70521;BME280;58442;52.716;23.560;2023-02-03T03:47:21;101458.19;;;0.58;77.09
70521;BME280;58442;52.716;23.560;2023-02-03T03:49:28;101457.11;;;0.59;77.08
70521;BME280;58442;52.716;23.560;2023-02-03T03:53:49;101461.40;;;0.60;77.01
70521;BME280;58442;52.716;23.560;2023-02-03T03:55:53;101454.45;;;0.59;77.02
70521;BME280;58442;52.716;23.560;2023-02-03T03:58:14;101466.74;;;0.60;77.05
70521;BME280;58442;52.716;23.560;2023-02-03T04:00:19;101463.55;;;0.63;77.02
70521;BME280;58442;52.716;23.560;2023-02-03T04:02:23;101463.55;;;0.63;76.91
70521;BME280;58442;52.716;23.560;2023-02-03T04:04:24;101464.37;;;0.63;76.92
70521;BME280;58442;52.716;23.560;2023-02-03T04:06:27;101459.02;;;0.63;76.94
70521;BME280;58442;52.716;23.560;2023-02-03T04:08:32;101462.49;;;0.64;76.94
70521;BME280;58442;52.716;23.560;2023-02-03T04:10:39;101464.37;;;0.63;76.98
70521;BME280;58442;52.716;23.560;2023-02-03T04:12:41;101462.49;;;0.64;76.97
70521;BME280;58442;52.716;23.560;2023-02-03T04:14:42;101455.27;;;0.64;76.97
70521;BME280;58442;52.716;23.560;2023-02-03T04:16:47;101458.22;;;0.63;76.99
70521;BME280;58442;52.716;23.560;2023-02-03T04:18:49;101460.89;;;0.63;76.98
70521;BME280;58442;52.716;23.560;2023-02-03T04:20:50;101469.95;;;0.62;76.97
70521;BME280;58442;52.716;23.560;2023-02-03T04:22:55;101473.70;;;0.61;77.01
70521;BME280;58442;52.716;23.560;2023-02-03T04:25:03;101480.91;;;0.60;77.08
70521;BME280;58442;52.716;23.560;2023-02-03T04:27:04;101471.82;;;0.61;77.08
70521;BME280;58442;52.716;23.560;2023-02-03T04:29:06;101481.48;;;0.62;77.08
70521;BME280;58442;52.716;23.560;2023-02-03T04:31:07;101487.37;;;0.64;77.09
70521;BME280;58442;52.716;23.560;2023-02-03T04:33:18;101489.24;;;0.64;77.07
70521;BME280;58442;52.716;23.560;2023-02-03T04:35:19;101486.56;;;0.64;77.14
70521;BME280;58442;52.716;23.560;2023-02-03T04:37:20;101490.58;;;0.66;77.11
70521;BME280;58442;52.716;23.560;2023-02-03T04:39:23;101494.31;;;0.65;77.11
70521;BME280;58442;52.716;23.560;2023-02-03T04:41:33;101488.44;;;0.63;77.15
70521;BME280;58442;52.716;23.560;2023-02-03T04:43:34;101485.20;;;0.61;77.17
70521;BME280;58442;52.716;23.560;2023-02-03T04:45:36;101487.07;;;0.61;77.24
70521;BME280;58442;52.716;23.560;2023-02-03T04:47:37;101496.97;;;0.60;77.27
70521;BME280;58442;52.716;23.560;2023-02-03T04:49:48;101487.87;;;0.61;77.30
70521;BME280;58442;52.716;23.560;2023-02-03T04:51:49;101488.68;;;0.62;77.33
70521;BME280;58442;52.716;23.560;2023-02-03T04:53:50;101491.91;;;0.64;77.29
70521;BME280;58442;52.716;23.560;2023-02-03T04:55:52;101491.91;;;0.64;77.21
70521;BME280;58442;52.716;23.560;2023-02-03T04:58:10;101502.61;;;0.64;77.23
70521;BME280;58442;52.716;23.560;2023-02-03T05:00:14;101507.96;;;0.64;77.49
70521;BME280;58442;52.716;23.560;2023-02-03T05:02:27;101500.45;;;0.61;77.25
70521;BME280;58442;52.716;23.560;2023-02-03T05:04:28;101507.66;;;0.60;77.34
70521;BME280;58442;52.716;23.560;2023-02-03T05:06:32;101503.92;;;0.61;77.35
70521;BME280;58442;52.716;23.560;2023-02-03T05:08:34;101507.40;;;0.62;77.38
70521;BME280;58442;52.716;23.560;2023-02-03T05:10:36;101508.22;;;0.62;77.38
70521;BME280;58442;52.716;23.560;2023-02-03T05:12:38;101512.52;;;0.63;77.38
70521;BME280;58442;52.716;23.560;2023-02-03T05:14:47;101505.55;;;0.62;77.44
70521;BME280;58442;52.716;23.560;2023-02-03T05:16:48;101505.55;;;0.62;77.49
70521;BME280;58442;52.716;23.560;2023-02-03T05:18:50;101514.38;;;0.63;77.50
70521;BME280;58442;52.716;23.560;2023-02-03T05:20:51;101505.29;;;0.64;77.50
70521;BME280;58442;52.716;23.560;2023-02-03T05:23:02;101511.44;;;0.64;77.49
70521;BME280;58442;52.716;23.560;2023-02-03T05:25:13;101514.91;;;0.65;77.50
70521;BME280;58442;52.716;23.560;2023-02-03T05:27:14;101518.66;;;0.64;77.49
70521;BME280;58442;52.716;23.560;2023-02-03T05:29:16;101518.66;;;0.64;77.50
70521;BME280;58442;52.716;23.560;2023-02-03T05:31:19;101520.26;;;0.65;77.50
70521;BME280;58442;52.716;23.560;2023-02-03T05:33:23;101520.26;;;0.65;77.52
70521;BME280;58442;52.716;23.560;2023-02-03T05:35:24;101519.20;;;0.66;77.48
70521;BME280;58442;52.716;23.560;2023-02-03T05:37:25;101509.30;;;0.66;77.33
70521;BME280;58442;52.716;23.560;2023-02-03T05:39:34;101509.30;;;0.66;77.46
70521;BME280;58442;52.716;23.560;2023-02-03T05:41:35;101504.75;;;0.67;77.49
70521;BME280;58442;52.716;23.560;2023-02-03T05:43:48;101506.63;;;0.66;77.44
70521;BME280;58442;52.716;23.560;2023-02-03T05:45:50;101501.27;;;0.66;77.46
70521;BME280;58442;52.716;23.560;2023-02-03T05:47:55;101504.75;;;0.67;77.49
70521;BME280;58442;52.716;23.560;2023-02-03T05:49:57;101507.43;;;0.67;77.52
70521;BME280;58442;52.716;23.560;2023-02-03T05:51:58;101501.01;;;0.68;77.52
70521;BME280;58442;52.716;23.560;2023-02-03T05:53:59;101506.92;;;0.70;77.49
70521;BME280;58442;52.716;23.560;2023-02-03T05:56:08;101510.40;;;0.70;77.49
70521;BME280;58442;52.716;23.560;2023-02-03T05:58:09;101509.33;;;0.71;77.45
70521;BME280;58442;52.716;23.560;2023-02-03T06:00:12;101505.05;;;0.70;77.47
70521;BME280;58442;52.716;23.560;2023-02-03T06:02:14;101512.27;;;0.70;77.47
70521;BME280;58442;52.716;23.560;2023-02-03T06:04:23;101510.13;;;0.72;77.50
70521;BME280;58442;52.716;23.560;2023-02-03T06:06:27;101506.91;;;0.75;77.47
70521;BME280;58442;52.716;23.560;2023-02-03T06:08:35;101513.90;;;0.76;77.46
70521;BME280;58442;52.716;23.560;2023-02-03T06:10:39;101517.62;;;0.75;77.40
70521;BME280;58442;52.716;23.560;2023-02-03T06:12:41;101520.29;;;0.75;77.45
70521;BME280;58442;52.716;23.560;2023-02-03T06:14:42;101527.27;;;0.76;77.44
70521;BME280;58442;52.716;23.560;2023-02-03T06:16:51;101518.98;;;0.77;77.43
70521;BME280;58442;52.716;23.560;2023-02-03T06:18:54;101526.74;;;0.79;77.43
70521;BME280;58442;52.716;23.560;2023-02-03T06:21:00;101517.64;;;0.80;77.42
70521;BME280;58442;52.716;23.560;2023-02-03T06:23:02;101518.18;;;0.82;77.42
70521;BME280;58442;52.716;23.560;2023-02-03T06:25:13;101513.12;;;0.86;77.42
70521;BME280;58442;52.716;23.560;2023-02-03T06:27:17;101519.80;;;0.88;77.35
70521;BME280;58442;52.716;23.560;2023-02-03T06:29:18;101508.86;;;0.90;77.31
70521;BME280;58442;52.716;23.560;2023-02-03T06:31:19;101505.65;;;0.93;77.30
70521;BME280;58442;52.716;23.560;2023-02-03T06:33:21;101513.40;;;0.94;77.24
70521;BME280;58442;52.716;23.560;2023-02-03T06:35:23;101503.50;;;0.95;77.24
70521;BME280;58442;52.716;23.560;2023-02-03T06:37:25;101505.94;;;0.96;77.24
70521;BME280;58442;52.716;23.560;2023-02-03T06:39:26;101506.47;;;0.98;77.23
70521;BME280;58442;52.716;23.560;2023-02-03T06:41:28;101501.65;;;1.00;77.23
70521;BME280;58442;52.716;23.560;2023-02-03T06:43:30;101499.51;;;1.02;77.22
70521;BME280;58442;52.716;23.560;2023-02-03T06:45:40;101503.54;;;1.05;77.20
70521;BME280;58442;52.716;23.560;2023-02-03T06:47:44;101505.15;;;1.06;77.19
70521;BME280;58442;52.716;23.560;2023-02-03T06:49:46;101498.45;;;1.08;77.21
70521;BME280;58442;52.716;23.560;2023-02-03T06:51:47;101499.01;;;1.11;77.18
70521;BME280;58442;52.716;23.560;2023-02-03T06:53:55;101492.03;;;1.15;77.15
70521;BME280;58442;52.716;23.560;2023-02-03T06:56:01;101496.88;;;1.18;77.11
70521;BME280;58442;52.716;23.560;2023-02-03T06:58:03;101489.10;;;1.21;77.04
70521;BME280;58442;52.716;23.560;2023-02-03T07:00:10;101492.07;;;1.25;77.01
70521;BME280;58442;52.716;23.560;2023-02-03T07:02:13;101488.84;;;1.28;77.01
70521;BME280;58442;52.716;23.560;2023-02-03T07:04:20;101486.70;;;1.30;76.93
70521;BME280;58442;52.716;23.560;2023-02-03T07:06:28;101483.50;;;1.33;76.92
70521;BME280;58442;52.716;23.560;2023-02-03T07:08:33;101479.48;;;1.35;76.85
70521;BME280;58442;52.716;23.560;2023-02-03T07:10:35;101476.28;;;1.39;76.79
70521;BME280;58442;52.716;23.560;2023-02-03T07:12:36;101480.82;;;1.43;76.70
70521;BME280;58442;52.716;23.560;2023-02-03T07:14:40;101481.10;;;1.47;76.53
70521;BME280;58442;52.716;23.560;2023-02-03T07:16:42;101482.43;;;1.49;76.49
70521;BME280;58442;52.716;23.560;2023-02-03T07:18:47;101480.31;;;1.51;76.44
70521;BME280;58442;52.716;23.560;2023-02-03T07:20:49;101478.96;;;1.54;76.36
70521;BME280;58442;52.716;23.560;2023-02-03T07:22:55;101478.41;;;1.57;76.38
70521;BME280;58442;52.716;23.560;2023-02-03T07:24:56;101478.95;;;1.64;76.34
70521;BME280;58442;52.716;23.560;2023-02-03T07:27:02;101478.14;;;1.69;76.21
70521;BME280;58442;52.716;23.560;2023-02-03T07:29:04;101475.99;;;1.71;76.12
70521;BME280;58442;52.716;23.560;2023-02-03T07:31:05;101473.06;;;1.72;76.10
70521;BME280;58442;52.716;23.560;2023-02-03T07:33:10;101479.23;;;1.73;76.09
70521;BME280;58442;52.716;23.560;2023-02-03T07:35:18;101478.15;;;1.74;76.09
70521;BME280;58442;52.716;23.560;2023-02-03T07:37:19;101481.07;;;1.77;76.06
70521;BME280;58442;52.716;23.560;2023-02-03T07:39:21;101470.91;;;1.79;76.04
70521;BME280;58442;52.716;23.560;2023-02-03T07:41:22;101467.95;;;1.81;76.03
70521;BME280;58442;52.716;23.560;2023-02-03T07:43:32;101468.48;;;1.83;76.00
70521;BME280;58442;52.716;23.560;2023-02-03T07:45:34;101475.20;;;1.85;75.89
70521;BME280;58442;52.716;23.560;2023-02-03T07:47:36;101475.99;;;1.86;75.77
70521;BME280;58442;52.716;23.560;2023-02-03T07:49:37;101474.12;;;1.86;76.18
70521;BME280;58442;52.716;23.560;2023-02-03T07:51:47;101474.09;;;1.91;75.71
70521;BME280;58442;52.716;23.560;2023-02-03T07:53:48;101465.24;;;1.96;75.68
70521;BME280;58442;52.716;23.560;2023-02-03T07:55:50;101459.88;;;2.01;75.53
70521;BME280;58442;52.716;23.560;2023-02-03T07:57:55;101457.99;;;2.07;75.39
70521;BME280;58442;52.716;23.560;2023-02-03T08:00:03;101455.55;;;2.10;75.27
70521;BME280;58442;52.716;23.560;2023-02-03T08:02:05;101454.22;;;2.13;75.22
70521;BME280;58442;52.716;23.560;2023-02-03T08:04:06;101455.27;;;2.17;75.18
70521;BME280;58442;52.716;23.560;2023-02-03T08:06:12;101462.78;;;2.20;75.08
70521;BME280;58442;52.716;23.560;2023-02-03T08:08:17;101453.11;;;2.19;74.97
70521;BME280;58442;52.716;23.560;2023-02-03T08:10:18;101461.98;;;2.14;74.87
70521;BME280;58442;52.716;23.560;2023-02-03T08:12:20;101464.66;;;2.09;74.92
70521;BME280;58442;52.716;23.560;2023-02-03T08:14:21;101463.88;;;2.04;74.95
70521;BME280;58442;52.716;23.560;2023-02-03T08:16:32;101467.39;;;1.99;75.04
70521;BME280;58442;52.716;23.560;2023-02-03T08:18:36;101471.40;;;1.97;75.05
70521;BME280;58442;52.716;23.560;2023-02-03T08:20:37;101471.16;;;1.93;75.07
70521;BME280;58442;52.716;23.560;2023-02-03T08:22:39;101471.43;;;1.86;75.11
70521;BME280;58442;52.716;23.560;2023-02-03T08:24:47;101466.35;;;1.80;75.17
70521;BME280;58442;52.716;23.560;2023-02-03T08:26:49;101468.48;;;1.78;75.19
70521;BME280;58442;52.716;23.560;2023-02-03T08:28:52;101464.19;;;1.77;75.15
70521;BME280;58442;52.716;23.560;2023-02-03T08:30:53;101460.44;;;1.78;75.10
70521;BME280;58442;52.716;23.560;2023-02-03T08:33:02;101466.35;;;1.80;74.86
70521;BME280;58442;52.716;23.560;2023-02-03T08:35:05;101468.48;;;1.78;74.82
70521;BME280;58442;52.716;23.560;2023-02-03T08:37:06;101466.07;;;1.76;74.87
70521;BME280;58442;52.716;23.560;2023-02-03T08:39:08;101463.92;;;1.78;74.97
70521;BME280;58442;52.716;23.560;2023-02-03T08:41:19;101463.92;;;1.78;74.85
70521;BME280;58442;52.716;23.560;2023-02-03T08:43:26;101459.39;;;1.79;74.86
70521;BME280;58442;52.716;23.560;2023-02-03T08:45:28;101451.87;;;1.81;74.74
70521;BME280;58442;52.716;23.560;2023-02-03T08:47:29;101450.80;;;1.82;74.74
70521;BME280;58442;52.716;23.560;2023-02-03T08:49:32;101442.76;;;1.82;74.76
70521;BME280;58442;52.716;23.560;2023-02-03T08:51:35;101437.40;;;1.82;74.69
70521;BME280;58442;52.716;23.560;2023-02-03T08:53:40;101441.15;;;1.81;74.65
70521;BME280;58442;52.716;23.560;2023-02-03T08:55:48;101443.84;;;1.81;74.60
70521;BME280;58442;52.716;23.560;2023-02-03T08:57:50;101444.10;;;1.79;74.63
70521;BME280;58442;52.716;23.560;2023-02-03T08:59:51;101450.52;;;1.83;74.60
70521;BME280;58442;52.716;23.560;2023-02-03T09:01:54;101437.92;;;1.84;74.45
70521;BME280;58442;52.716;23.560;2023-02-03T09:03:56;101445.16;;;1.83;74.43
70521;BME280;58442;52.716;23.560;2023-02-03T09:06:03;101443.04;;;1.85;74.43
70521;BME280;58442;52.716;23.560;2023-02-03T09:08:05;101439.27;;;1.86;74.38
70521;BME280;58442;52.716;23.560;2023-02-03T09:10:07;101445.40;;;1.92;74.34
70521;BME280;58442;52.716;23.560;2023-02-03T09:12:08;101433.59;;;1.98;74.28
70521;BME280;58442;52.716;23.560;2023-02-03T09:14:17;101434.11;;;2.05;74.06
70521;BME280;58442;52.716;23.560;2023-02-03T09:16:19;101436.50;;;2.12;73.93
70521;BME280;58442;52.716;23.560;2023-02-03T09:18:23;101437.85;;;2.14;73.93
70521;BME280;58442;52.716;23.560;2023-02-03T09:20:25;101431.94;;;2.17;73.91
70521;BME280;58442;52.716;23.560;2023-02-03T09:22:32;101425.48;;;2.24;73.85
70521;BME280;58442;52.716;23.560;2023-02-03T09:24:42;101434.03;;;2.31;73.77
70521;BME280;58442;52.716;23.560;2023-02-03T09:26:44;101434.54;;;2.38;73.58
70521;BME280;58442;52.716;23.560;2023-02-03T09:28:48;101424.88;;;2.42;73.39
70521;BME280;58442;52.716;23.560;2023-02-03T09:30:49;101428.08;;;2.44;73.30
70521;BME280;58442;52.716;23.560;2023-02-03T09:32:53;101428.08;;;2.44;73.29
70521;BME280;58442;52.716;23.560;2023-02-03T09:34:56;101424.03;;;2.46;73.12
70521;BME280;58442;52.716;23.560;2023-02-03T09:36:58;101422.98;;;2.48;73.08
70521;BME280;58442;52.716;23.560;2023-02-03T09:39:03;101426.97;;;2.50;73.10
70521;BME280;58442;52.716;23.560;2023-02-03T09:45:32;101410.81;;;2.60;72.76
70521;BME280;58442;52.716;23.560;2023-02-03T09:47:40;101405.71;;;2.64;72.72
70521;BME280;58442;52.716;23.560;2023-02-03T09:52:14;101397.38;;;2.65;72.46
70521;BME280;58442;52.716;23.560;2023-02-03T09:56:49;101390.17;;;2.61;72.54
70521;BME280;58442;52.716;23.560;2023-02-03T09:58:55;101386.40;;;2.62;72.47
70521;BME280;58442;52.716;23.560;2023-02-03T10:00:58;101380.76;;;2.63;72.33
70521;BME280;58442;52.716;23.560;2023-02-03T10:03:13;101366.83;;;2.61;72.18
70521;BME280;58442;52.716;23.560;2023-02-03T10:19:21;101353.77;;;2.44;72.27
70521;BME280;58442;52.716;23.560;2023-02-03T10:21:57;101348.12;;;2.46;72.25
70521;BME280;58442;52.716;23.560;2023-02-03T10:23:55;101338.73;;;2.49;72.24
70521;BME280;58442;52.716;23.560;2023-02-03T10:26:01;101335.73;;;2.55;71.92
70521;BME280;58442;52.716;23.560;2023-02-03T10:28:17;101329.80;;;2.58;71.82
70521;BME280;58442;52.716;23.560;2023-02-03T10:30:27;101312.62;;;2.59;71.64
70521;BME280;58442;52.716;23.560;2023-02-03T10:32:33;101311.01;;;2.58;71.33
70521;BME280;58442;52.716;23.560;2023-02-03T10:34:37;101307.25;;;2.59;71.67
70521;BME280;58442;52.716;23.560;2023-02-03T10:41:04;101297.80;;;2.67;71.28
70521;BME280;58442;52.716;23.560;2023-02-03T10:43:08;101293.80;;;2.64;71.41
70521;BME280;58442;52.716;23.560;2023-02-03T10:45:22;101289.23;;;2.65;71.32
70521;BME280;58442;52.716;23.560;2023-02-03T10:47:49;101281.98;;;2.65;71.33
70521;BME280;58442;52.716;23.560;2023-02-03T10:49:40;101286.84;;;2.63;71.27
70521;BME280;58442;52.716;23.560;2023-02-03T10:51:49;101280.67;;;2.63;71.19
70521;BME280;58442;52.716;23.560;2023-02-03T10:53:52;101280.90;;;2.66;71.16
70521;BME280;58442;52.716;23.560;2023-02-03T10:56:10;101281.95;;;2.70;70.99
70521;BME280;58442;52.716;23.560;2023-02-03T10:58:21;101278.98;;;2.72;70.86
70521;BME280;58442;52.716;23.560;2023-02-03T11:00:30;101268.02;;;2.68;70.90
70521;BME280;58442;52.716;23.560;2023-02-03T11:02:31;101272.34;;;2.64;70.93
70521;BME280;58442;52.716;23.560;2023-02-03T11:04:33;101260.04;;;2.58;70.98
70521;BME280;58442;52.716;23.560;2023-02-03T11:06:40;101263.30;;;2.55;71.07
70521;BME280;58442;52.716;23.560;2023-02-03T11:08:48;101252.02;;;2.53;71.10
70521;BME280;58442;52.716;23.560;2023-02-03T11:11:00;101248.28;;;2.54;71.05
70521;BME280;58442;52.716;23.560;2023-02-03T11:13:28;101245.02;;;2.57;71.02
70521;BME280;58442;52.716;23.560;2023-02-03T11:15:16;101239.08;;;2.60;70.88
70521;BME280;58442;52.716;23.560;2023-02-03T11:17:20;101238.29;;;2.60;70.76
70521;BME280;58442;52.716;23.560;2023-02-03T11:19:29;101231.61;;;2.57;70.85
70521;BME280;58442;52.716;23.560;2023-02-03T11:25:55;101210.30;;;2.71;70.84
70521;BME280;58442;52.716;23.560;2023-02-03T11:28:04;101210.47;;;2.80;70.53
70521;BME280;58442;52.716;23.560;2023-02-03T11:30:15;101200.78;;;2.84;70.40
70521;BME280;58442;52.716;23.560;2023-02-03T11:32:24;101198.05;;;2.89;70.37
70521;BME280;58442;52.716;23.560;2023-02-03T11:34:34;101196.89;;;2.95;70.28
70521;BME280;58442;52.716;23.560;2023-02-03T11:36:37;101191.19;;;3.01;70.11
70521;BME280;58442;52.716;23.560;2023-02-03T11:38:39;101177.50;;;3.03;69.75
70521;BME280;58442;52.716;23.560;2023-02-03T11:40:49;101181.77;;;3.04;69.76
70521;BME280;58442;52.716;23.560;2023-02-03T11:43:46;101170.16;;;3.09;69.70
70521;BME280;58442;52.716;23.560;2023-02-03T11:47:22;101171.66;;;3.20;69.42
70521;BME280;58442;52.716;23.560;2023-02-03T11:54:28;101154.73;;;3.19;69.17
70521;BME280;58442;52.716;23.560;2023-02-03T11:59:11;101140.57;;;3.14;69.20
70521;BME280;58442;52.716;23.560;2023-02-03T12:08:34;101116.92;;;3.16;69.12
70521;BME280;58442;52.716;23.560;2023-02-03T12:10:59;101111.77;;;3.19;69.06
70521;BME280;58442;52.716;23.560;2023-02-03T12:15:38;101103.35;;;3.26;68.90
70521;BME280;58442;52.716;23.560;2023-02-03T12:20:40;101099.29;;;3.28;68.74
70521;BME280;58442;52.716;23.560;2023-02-03T12:29:44;101095.59;;;3.24;68.51
70521;BME280;58442;52.716;23.560;2023-02-03T12:36:54;101082.58;;;3.13;68.50